sensor_id;sensor_type;location;lat;lon;timestamp;P1;durP1;ratioP1;P2;durP2;ratioP2
17524;SDS011;40431;52.198;9.902;2023-03-13T00:01:30;13.87;;;5.30;;
17524;SDS011;40431;52.198;9.902;2023-03-13T00:03:59;13.67;;;5.60;;
17524;SDS011;40431;52.198;9.902;2023-03-13T00:06:27;11.87;;;5.90;;
17524;SDS011;40431;52.198;9.902;2023-03-13T00:08:57;16.90;;;6.67;;
17524;SDS011;40431;52.198;9.902;2023-03-13T00:11:25;11.37;;;5.43;;
17524;SDS011;40431;52.198;9.902;2023-03-13T00:13:52;15.60;;;5.70;;
17524;SDS011;40431;52.198;9.902;2023-03-13T00:16:19;11.03;;;5.50;;
17524;SDS011;40431;52.198;9.902;2023-03-13T00:18:46;13.90;;;5.73;;
17524;SDS011;40431;52.198;9.902;2023-03-13T00:21:16;18.77;;;6.00;;
17524;SDS011;40431;52.198;9.902;2023-03-13T00:23:43;13.53;;;5.43;;
17524;SDS011;40431;52.198;9.902;2023-03-13T00:26:10;17.87;;;5.93;;
17524;SDS011;40431;52.198;9.902;2023-03-13T00:28:39;15.83;;;5.10;;
17524;SDS011;40431;52.198;9.902;2023-03-13T00:31:07;13.20;;;4.97;;
17524;SDS011;40431;52.198;9.902;2023-03-13T00:33:35;20.80;;;5.77;;
17524;SDS011;40431;52.198;9.902;2023-03-13T00:36:04;17.20;;;6.57;;
17524;SDS011;40431;52.198;9.902;2023-03-13T00:38:33;12.30;;;5.23;;
17524;SDS011;40431;52.198;9.902;2023-03-13T00:41:00;12.47;;;5.30;;
17524;SDS011;40431;52.198;9.902;2023-03-13T00:43:27;14.83;;;5.37;;
17524;SDS011;40431;52.198;9.902;2023-03-13T00:45:53;12.07;;;5.40;;
17524;SDS011;40431;52.198;9.902;2023-03-13T00:48:20;14.67;;;5.50;;
17524;SDS011;40431;52.198;9.902;2023-03-13T00:50:47;15.63;;;5.37;;
17524;SDS011;40431;52.198;9.902;2023-03-13T01:06:20;11.63;;;5.27;;
17524;SDS011;40431;52.198;9.902;2023-03-13T01:08:48;11.33;;;4.83;;
17524;SDS011;40431;52.198;9.902;2023-03-13T01:11:15;14.03;;;5.97;;
17524;SDS011;40431;52.198;9.902;2023-03-13T01:13:43;12.40;;;5.13;;
17524;SDS011;40431;52.198;9.902;2023-03-13T01:16:11;14.63;;;4.83;;
17524;SDS011;40431;52.198;9.902;2023-03-13T01:18:39;10.07;;;4.20;;
17524;SDS011;40431;52.198;9.902;2023-03-13T01:21:09;14.20;;;5.37;;
17524;SDS011;40431;52.198;9.902;2023-03-13T01:23:36;13.30;;;4.90;;
17524;SDS011;40431;52.198;9.902;2023-03-13T01:26:04;14.23;;;5.13;;
17524;SDS011;40431;52.198;9.902;2023-03-13T01:28:31;11.83;;;5.40;;
17524;SDS011;40431;52.198;9.902;2023-03-13T01:30:58;12.57;;;5.03;;
17524;SDS011;40431;52.198;9.902;2023-03-13T01:33:25;10.23;;;4.23;;
17524;SDS011;40431;52.198;9.902;2023-03-13T01:35:51;15.20;;;4.60;;
17524;SDS011;40431;52.198;9.902;2023-03-13T01:38:19;16.93;;;5.70;;
17524;SDS011;40431;52.198;9.902;2023-03-13T01:40:46;11.57;;;5.43;;
17524;SDS011;40431;52.198;9.902;2023-03-13T01:43:18;8.23;;;4.80;;
17524;SDS011;40431;52.198;9.902;2023-03-13T01:45:50;13.57;;;5.10;;
17524;SDS011;40431;52.198;9.902;2023-03-13T01:48:21;12.63;;;4.87;;
17524;SDS011;40431;52.198;9.902;2023-03-13T01:50:54;16.07;;;5.13;;
17524;SDS011;40431;52.198;9.902;2023-03-13T01:53:23;10.50;;;5.10;;
17524;SDS011;40431;52.198;9.902;2023-03-13T01:55:50;10.70;;;4.63;;
17524;SDS011;40431;52.198;9.902;2023-03-13T01:58:18;13.27;;;5.90;;
17524;SDS011;40431;52.198;9.902;2023-03-13T02:00:45;15.13;;;4.90;;
17524;SDS011;40431;52.198;9.902;2023-03-13T02:03:14;13.43;;;4.77;;
17524;SDS011;40431;52.198;9.902;2023-03-13T02:05:45;12.40;;;5.00;;
17524;SDS011;40431;52.198;9.902;2023-03-13T02:08:14;17.77;;;5.63;;
17524;SDS011;40431;52.198;9.902;2023-03-13T02:10:47;11.97;;;5.13;;
17524;SDS011;40431;52.198;9.902;2023-03-13T02:13:16;16.17;;;5.67;;
17524;SDS011;40431;52.198;9.902;2023-03-13T02:15:42;9.63;;;4.90;;
17524;SDS011;40431;52.198;9.902;2023-03-13T02:18:10;13.63;;;5.07;;
17524;SDS011;40431;52.198;9.902;2023-03-13T02:20:37;22.03;;;6.23;;
17524;SDS011;40431;52.198;9.902;2023-03-13T02:23:05;11.07;;;4.80;;
17524;SDS011;40431;52.198;9.902;2023-03-13T02:25:38;10.53;;;4.40;;
17524;SDS011;40431;52.198;9.902;2023-03-13T02:28:08;12.57;;;4.87;;
17524;SDS011;40431;52.198;9.902;2023-03-13T02:30:38;16.20;;;4.70;;
17524;SDS011;40431;52.198;9.902;2023-03-13T02:33:06;9.10;;;5.00;;
17524;SDS011;40431;52.198;9.902;2023-03-13T02:35:33;16.50;;;5.30;;
17524;SDS011;40431;52.198;9.902;2023-03-13T02:38:02;15.30;;;5.07;;
17524;SDS011;40431;52.198;9.902;2023-03-13T02:40:32;17.63;;;5.90;;
17524;SDS011;40431;52.198;9.902;2023-03-13T02:43:04;13.43;;;4.67;;
17524;SDS011;40431;52.198;9.902;2023-03-13T02:45:33;18.30;;;5.07;;
17524;SDS011;40431;52.198;9.902;2023-03-13T02:48:00;17.50;;;5.17;;
17524;SDS011;40431;52.198;9.902;2023-03-13T02:50:26;12.27;;;4.63;;
17524;SDS011;40431;52.198;9.902;2023-03-13T02:52:53;11.53;;;4.90;;
17524;SDS011;40431;52.198;9.902;2023-03-13T02:55:25;12.73;;;4.67;;
17524;SDS011;40431;52.198;9.902;2023-03-13T02:57:54;18.30;;;5.43;;
17524;SDS011;40431;52.198;9.902;2023-03-13T03:00:22;13.03;;;5.00;;
17524;SDS011;40431;52.198;9.902;2023-03-13T03:02:50;11.80;;;5.07;;
17524;SDS011;40431;52.198;9.902;2023-03-13T03:05:18;9.53;;;4.40;;
17524;SDS011;40431;52.198;9.902;2023-03-13T03:07:46;13.00;;;4.93;;
17524;SDS011;40431;52.198;9.902;2023-03-13T03:10:12;14.03;;;4.33;;
17524;SDS011;40431;52.198;9.902;2023-03-13T03:12:39;11.03;;;4.53;;
17524;SDS011;40431;52.198;9.902;2023-03-13T03:15:06;13.17;;;4.73;;
17524;SDS011;40431;52.198;9.902;2023-03-13T03:17:35;15.43;;;5.43;;
17524;SDS011;40431;52.198;9.902;2023-03-13T03:20:01;16.40;;;5.00;;
17524;SDS011;40431;52.198;9.902;2023-03-13T03:22:29;14.50;;;5.33;;
17524;SDS011;40431;52.198;9.902;2023-03-13T03:24:55;11.13;;;4.60;;
17524;SDS011;40431;52.198;9.902;2023-03-13T03:27:21;14.87;;;5.07;;
17524;SDS011;40431;52.198;9.902;2023-03-13T03:29:48;15.63;;;5.37;;
17524;SDS011;40431;52.198;9.902;2023-03-13T03:32:14;14.23;;;4.77;;
17524;SDS011;40431;52.198;9.902;2023-03-13T03:34:42;11.57;;;4.97;;
17524;SDS011;40431;52.198;9.902;2023-03-13T03:37:08;12.93;;;5.00;;
17524;SDS011;40431;52.198;9.902;2023-03-13T03:39:34;12.07;;;4.67;;
17524;SDS011;40431;52.198;9.902;2023-03-13T03:42:01;13.43;;;4.73;;
17524;SDS011;40431;52.198;9.902;2023-03-13T03:44:28;9.77;;;4.30;;
17524;SDS011;40431;52.198;9.902;2023-03-13T03:46:54;14.43;;;4.87;;
17524;SDS011;40431;52.198;9.902;2023-03-13T03:49:21;13.57;;;4.77;;
17524;SDS011;40431;52.198;9.902;2023-03-13T03:51:49;13.27;;;4.80;;
17524;SDS011;40431;52.198;9.902;2023-03-13T03:54:15;11.70;;;5.30;;
17524;SDS011;40431;52.198;9.902;2023-03-13T03:56:41;11.63;;;4.80;;
17524;SDS011;40431;52.198;9.902;2023-03-13T03:59:08;14.30;;;5.43;;
17524;SDS011;40431;52.198;9.902;2023-03-13T04:01:34;11.87;;;4.83;;
17524;SDS011;40431;52.198;9.902;2023-03-13T04:04:00;11.40;;;4.70;;
17524;SDS011;40431;52.198;9.902;2023-03-13T04:06:27;16.73;;;5.27;;
17524;SDS011;40431;52.198;9.902;2023-03-13T04:08:54;9.50;;;3.77;;
17524;SDS011;40431;52.198;9.902;2023-03-13T04:11:21;13.97;;;4.23;;
17524;SDS011;40431;52.198;9.902;2023-03-13T04:13:47;12.23;;;5.27;;
17524;SDS011;40431;52.198;9.902;2023-03-13T04:16:14;9.10;;;4.60;;
17524;SDS011;40431;52.198;9.902;2023-03-13T04:18:40;15.63;;;4.67;;
17524;SDS011;40431;52.198;9.902;2023-03-13T04:21:06;18.77;;;4.73;;
17524;SDS011;40431;52.198;9.902;2023-03-13T04:23:33;17.27;;;5.13;;
17524;SDS011;40431;52.198;9.902;2023-03-13T04:26:00;12.57;;;4.57;;
17524;SDS011;40431;52.198;9.902;2023-03-13T04:28:27;10.43;;;4.00;;
17524;SDS011;40431;52.198;9.902;2023-03-13T04:30:53;12.63;;;4.67;;
17524;SDS011;40431;52.198;9.902;2023-03-13T04:33:21;11.47;;;4.53;;
17524;SDS011;40431;52.198;9.902;2023-03-13T04:35:47;15.87;;;5.73;;
17524;SDS011;40431;52.198;9.902;2023-03-13T04:38:14;18.73;;;5.17;;
17524;SDS011;40431;52.198;9.902;2023-03-13T04:40:40;12.10;;;4.50;;
17524;SDS011;40431;52.198;9.902;2023-03-13T04:43:10;15.87;;;6.17;;
17524;SDS011;40431;52.198;9.902;2023-03-13T04:45:36;18.50;;;9.97;;
17524;SDS011;40431;52.198;9.902;2023-03-13T04:48:02;14.83;;;7.27;;
17524;SDS011;40431;52.198;9.902;2023-03-13T04:50:29;10.33;;;5.17;;
17524;SDS011;40431;52.198;9.902;2023-03-13T04:52:55;14.20;;;5.20;;
17524;SDS011;40431;52.198;9.902;2023-03-13T04:55:22;12.20;;;5.50;;
17524;SDS011;40431;52.198;9.902;2023-03-13T04:57:48;13.43;;;5.30;;
17524;SDS011;40431;52.198;9.902;2023-03-13T05:00:16;13.50;;;5.10;;
17524;SDS011;40431;52.198;9.902;2023-03-13T05:02:43;11.60;;;4.27;;
17524;SDS011;40431;52.198;9.902;2023-03-13T05:05:09;16.57;;;5.73;;
17524;SDS011;40431;52.198;9.902;2023-03-13T05:07:35;15.27;;;4.13;;
17524;SDS011;40431;52.198;9.902;2023-03-13T05:10:02;8.97;;;4.10;;
17524;SDS011;40431;52.198;9.902;2023-03-13T05:12:29;6.17;;;4.13;;
17524;SDS011;40431;52.198;9.902;2023-03-13T05:14:55;12.50;;;4.53;;
17524;SDS011;40431;52.198;9.902;2023-03-13T05:17:23;9.30;;;4.50;;
17524;SDS011;40431;52.198;9.902;2023-03-13T05:19:49;10.93;;;4.13;;
17524;SDS011;40431;52.198;9.902;2023-03-13T05:22:15;8.53;;;3.93;;
17524;SDS011;40431;52.198;9.902;2023-03-13T05:24:42;9.60;;;3.83;;
17524;SDS011;40431;52.198;9.902;2023-03-13T05:27:09;14.13;;;4.30;;
17524;SDS011;40431;52.198;9.902;2023-03-13T05:29:35;9.33;;;3.53;;
17524;SDS011;40431;52.198;9.902;2023-03-13T05:32:02;7.57;;;3.37;;
17524;SDS011;40431;52.198;9.902;2023-03-13T05:34:32;7.40;;;4.03;;
17524;SDS011;40431;52.198;9.902;2023-03-13T05:36:58;12.13;;;4.83;;
17524;SDS011;40431;52.198;9.902;2023-03-13T05:39:25;4.97;;;3.03;;
17524;SDS011;40431;52.198;9.902;2023-03-13T05:41:51;7.73;;;3.67;;
17524;SDS011;40431;52.198;9.902;2023-03-13T05:44:17;7.93;;;3.20;;
17524;SDS011;40431;52.198;9.902;2023-03-13T05:46:44;9.33;;;3.50;;
17524;SDS011;40431;52.198;9.902;2023-03-13T05:49:10;4.93;;;2.90;;
17524;SDS011;40431;52.198;9.902;2023-03-13T05:51:38;7.43;;;3.73;;
17524;SDS011;40431;52.198;9.902;2023-03-13T05:54:04;6.87;;;3.23;;
17524;SDS011;40431;52.198;9.902;2023-03-13T05:56:31;8.90;;;3.90;;
17524;SDS011;40431;52.198;9.902;2023-03-13T05:58:57;8.83;;;4.23;;
17524;SDS011;40431;52.198;9.902;2023-03-13T06:01:23;7.97;;;3.30;;
17524;SDS011;40431;52.198;9.902;2023-03-13T06:03:50;10.77;;;5.80;;
17524;SDS011;40431;52.198;9.902;2023-03-13T06:06:16;7.17;;;3.73;;
17524;SDS011;40431;52.198;9.902;2023-03-13T06:08:44;6.73;;;3.33;;
17524;SDS011;40431;52.198;9.902;2023-03-13T06:11:10;6.13;;;3.33;;
17524;SDS011;40431;52.198;9.902;2023-03-13T06:13:36;7.90;;;3.37;;
17524;SDS011;40431;52.198;9.902;2023-03-13T06:16:03;6.87;;;3.83;;
17524;SDS011;40431;52.198;9.902;2023-03-13T06:18:30;4.87;;;2.97;;
17524;SDS011;40431;52.198;9.902;2023-03-13T06:20:57;5.93;;;2.60;;
17524;SDS011;40431;52.198;9.902;2023-03-13T06:23:25;7.27;;;3.60;;
17524;SDS011;40431;52.198;9.902;2023-03-13T06:25:53;7.10;;;3.07;;
17524;SDS011;40431;52.198;9.902;2023-03-13T06:28:19;5.47;;;3.03;;
17524;SDS011;40431;52.198;9.902;2023-03-13T06:30:46;5.53;;;2.80;;
17524;SDS011;40431;52.198;9.902;2023-03-13T06:33:12;5.40;;;2.97;;
17524;SDS011;40431;52.198;9.902;2023-03-13T06:35:39;5.33;;;2.83;;
17524;SDS011;40431;52.198;9.902;2023-03-13T06:38:06;3.13;;;2.60;;
17524;SDS011;40431;52.198;9.902;2023-03-13T06:40:33;7.03;;;3.30;;
17524;SDS011;40431;52.198;9.902;2023-03-13T06:43:00;3.93;;;2.40;;
17524;SDS011;40431;52.198;9.902;2023-03-13T06:45:27;3.70;;;2.53;;
17524;SDS011;40431;52.198;9.902;2023-03-13T06:47:53;4.77;;;2.50;;
17524;SDS011;40431;52.198;9.902;2023-03-13T06:50:19;4.60;;;2.40;;
17524;SDS011;40431;52.198;9.902;2023-03-13T06:52:46;5.57;;;2.50;;
17524;SDS011;40431;52.198;9.902;2023-03-13T06:55:12;5.10;;;2.37;;
17524;SDS011;40431;52.198;9.902;2023-03-13T06:57:39;4.53;;;2.60;;
17524;SDS011;40431;52.198;9.902;2023-03-13T07:00:08;3.97;;;2.13;;
17524;SDS011;40431;52.198;9.902;2023-03-13T07:02:35;5.57;;;2.60;;
17524;SDS011;40431;52.198;9.902;2023-03-13T07:05:01;4.40;;;2.40;;
17524;SDS011;40431;52.198;9.902;2023-03-13T07:07:29;2.73;;;2.00;;
17524;SDS011;40431;52.198;9.902;2023-03-13T07:09:56;2.17;;;1.83;;
17524;SDS011;40431;52.198;9.902;2023-03-13T07:12:23;2.47;;;2.10;;
17524;SDS011;40431;52.198;9.902;2023-03-13T07:14:49;3.23;;;1.90;;
17524;SDS011;40431;52.198;9.902;2023-03-13T07:17:17;2.53;;;2.00;;
17524;SDS011;40431;52.198;9.902;2023-03-13T07:19:43;2.33;;;2.10;;
17524;SDS011;40431;52.198;9.902;2023-03-13T07:22:10;4.03;;;1.87;;
17524;SDS011;40431;52.198;9.902;2023-03-13T07:24:36;2.60;;;1.97;;
17524;SDS011;40431;52.198;9.902;2023-03-13T07:27:02;2.40;;;1.80;;
17524;SDS011;40431;52.198;9.902;2023-03-13T07:29:29;10.57;;;6.60;;
17524;SDS011;40431;52.198;9.902;2023-03-13T07:31:55;4.10;;;3.40;;
17524;SDS011;40431;52.198;9.902;2023-03-13T07:34:23;2.80;;;1.63;;
17524;SDS011;40431;52.198;9.902;2023-03-13T07:36:49;2.30;;;2.10;;
17524;SDS011;40431;52.198;9.902;2023-03-13T07:39:16;3.23;;;2.10;;
17524;SDS011;40431;52.198;9.902;2023-03-13T07:41:42;2.43;;;2.17;;
17524;SDS011;40431;52.198;9.902;2023-03-13T07:44:08;2.77;;;2.20;;
17524;SDS011;40431;52.198;9.902;2023-03-13T07:46:35;4.30;;;2.67;;
17524;SDS011;40431;52.198;9.902;2023-03-13T07:49:01;2.20;;;2.00;;
17524;SDS011;40431;52.198;9.902;2023-03-13T07:51:29;2.00;;;1.80;;
17524;SDS011;40431;52.198;9.902;2023-03-13T07:53:55;2.20;;;2.00;;
17524;SDS011;40431;52.198;9.902;2023-03-13T07:56:22;2.60;;;1.70;;
17524;SDS011;40431;52.198;9.902;2023-03-13T07:58:49;2.80;;;2.20;;
17524;SDS011;40431;52.198;9.902;2023-03-13T08:01:16;2.47;;;1.97;;
17524;SDS011;40431;52.198;9.902;2023-03-13T08:03:44;2.30;;;2.10;;
17524;SDS011;40431;52.198;9.902;2023-03-13T08:06:13;3.10;;;1.50;;
17524;SDS011;40431;52.198;9.902;2023-03-13T08:08:43;2.07;;;1.70;;
17524;SDS011;40431;52.198;9.902;2023-03-13T08:11:10;2.77;;;1.57;;
17524;SDS011;40431;52.198;9.902;2023-03-13T08:13:38;1.83;;;1.67;;
17524;SDS011;40431;52.198;9.902;2023-03-13T08:16:05;1.90;;;1.70;;
17524;SDS011;40431;52.198;9.902;2023-03-13T08:18:34;3.27;;;1.97;;
17524;SDS011;40431;52.198;9.902;2023-03-13T08:21:01;1.60;;;1.50;;
17524;SDS011;40431;52.198;9.902;2023-03-13T08:23:29;1.90;;;1.70;;
17524;SDS011;40431;52.198;9.902;2023-03-13T08:25:57;2.60;;;1.80;;
17524;SDS011;40431;52.198;9.902;2023-03-13T08:28:26;2.60;;;1.77;;
17524;SDS011;40431;52.198;9.902;2023-03-13T08:30:53;2.90;;;2.00;;
17524;SDS011;40431;52.198;9.902;2023-03-13T08:33:19;2.50;;;1.63;;
17524;SDS011;40431;52.198;9.902;2023-03-13T08:35:45;2.73;;;2.27;;
17524;SDS011;40431;52.198;9.902;2023-03-13T08:38:12;1.67;;;1.57;;
17524;SDS011;40431;52.198;9.902;2023-03-13T08:40:38;2.33;;;2.10;;
17524;SDS011;40431;52.198;9.902;2023-03-13T08:43:06;2.20;;;2.00;;
17524;SDS011;40431;52.198;9.902;2023-03-13T08:45:32;1.93;;;1.60;;
17524;SDS011;40431;52.198;9.902;2023-03-13T08:47:59;1.80;;;1.70;;
17524;SDS011;40431;52.198;9.902;2023-03-13T08:50:25;1.90;;;1.80;;
17524;SDS011;40431;52.198;9.902;2023-03-13T08:52:51;2.73;;;2.30;;
17524;SDS011;40431;52.198;9.902;2023-03-13T08:55:18;2.03;;;1.77;;
17524;SDS011;40431;52.198;9.902;2023-03-13T08:57:44;2.53;;;1.77;;
17524;SDS011;40431;52.198;9.902;2023-03-13T09:00:12;2.20;;;1.93;;
17524;SDS011;40431;52.198;9.902;2023-03-13T09:02:40;1.60;;;1.50;;
17524;SDS011;40431;52.198;9.902;2023-03-13T09:05:06;2.63;;;1.90;;
17524;SDS011;40431;52.198;9.902;2023-03-13T09:07:33;1.90;;;1.80;;
17524;SDS011;40431;52.198;9.902;2023-03-13T09:09:59;2.10;;;1.63;;
17524;SDS011;40431;52.198;9.902;2023-03-13T09:12:26;1.87;;;1.70;;
17524;SDS011;40431;52.198;9.902;2023-03-13T09:14:52;2.60;;;1.80;;
17524;SDS011;40431;52.198;9.902;2023-03-13T09:17:20;2.13;;;1.90;;
17524;SDS011;40431;52.198;9.902;2023-03-13T09:19:46;1.70;;;1.60;;
17524;SDS011;40431;52.198;9.902;2023-03-13T09:22:12;2.50;;;1.80;;
17524;SDS011;40431;52.198;9.902;2023-03-13T09:24:39;2.20;;;2.10;;
17524;SDS011;40431;52.198;9.902;2023-03-13T09:27:06;2.03;;;1.57;;
17524;SDS011;40431;52.198;9.902;2023-03-13T09:29:32;2.57;;;2.00;;
17524;SDS011;40431;52.198;9.902;2023-03-13T09:32:02;2.80;;;2.00;;
17524;SDS011;40431;52.198;9.902;2023-03-13T09:34:30;7.73;;;7.03;;
17524;SDS011;40431;52.198;9.902;2023-03-13T09:36:56;3.33;;;3.03;;
17524;SDS011;40431;52.198;9.902;2023-03-13T09:39:23;2.87;;;2.23;;
17524;SDS011;40431;52.198;9.902;2023-03-13T09:41:52;2.10;;;1.90;;
17524;SDS011;40431;52.198;9.902;2023-03-13T09:44:23;1.97;;;1.70;;
17524;SDS011;40431;52.198;9.902;2023-03-13T09:46:54;2.83;;;1.57;;
17524;SDS011;40431;52.198;9.902;2023-03-13T09:49:30;1.60;;;1.50;;
17524;SDS011;40431;52.198;9.902;2023-03-13T09:52:10;2.57;;;1.90;;
17524;SDS011;40431;52.198;9.902;2023-03-13T09:54:41;3.27;;;2.10;;
17524;SDS011;40431;52.198;9.902;2023-03-13T09:57:12;2.17;;;1.80;;
17524;SDS011;40431;52.198;9.902;2023-03-13T09:59:44;2.00;;;1.50;;
17524;SDS011;40431;52.198;9.902;2023-03-13T10:02:18;1.97;;;1.77;;
17524;SDS011;40431;52.198;9.902;2023-03-13T10:04:52;1.90;;;1.80;;
17524;SDS011;40431;52.198;9.902;2023-03-13T10:07:24;2.00;;;1.80;;
17524;SDS011;40431;52.198;9.902;2023-03-13T10:09:51;2.47;;;2.23;;
17524;SDS011;40431;52.198;9.902;2023-03-13T10:12:18;1.70;;;1.60;;
17524;SDS011;40431;52.198;9.902;2023-03-13T10:14:47;1.80;;;1.70;;
17524;SDS011;40431;52.198;9.902;2023-03-13T10:17:21;2.70;;;1.70;;
17524;SDS011;40431;52.198;9.902;2023-03-13T10:19:57;2.40;;;1.50;;
17524;SDS011;40431;52.198;9.902;2023-03-13T10:22:32;1.57;;;1.33;;
17524;SDS011;40431;52.198;9.902;2023-03-13T10:24:59;2.10;;;1.77;;
17524;SDS011;40431;52.198;9.902;2023-03-13T10:27:30;3.10;;;2.07;;
17524;SDS011;40431;52.198;9.902;2023-03-13T10:29:57;2.03;;;1.83;;
17524;SDS011;40431;52.198;9.902;2023-03-13T10:32:23;1.63;;;1.43;;
17524;SDS011;40431;52.198;9.902;2023-03-13T10:34:51;4.83;;;2.00;;
17524;SDS011;40431;52.198;9.902;2023-03-13T10:37:23;2.13;;;1.90;;
17524;SDS011;40431;52.198;9.902;2023-03-13T10:39:50;2.27;;;2.07;;
17524;SDS011;40431;52.198;9.902;2023-03-13T10:42:19;2.03;;;1.83;;
17524;SDS011;40431;52.198;9.902;2023-03-13T10:44:48;2.20;;;2.00;;
17524;SDS011;40431;52.198;9.902;2023-03-13T10:47:14;1.80;;;1.70;;
17524;SDS011;40431;52.198;9.902;2023-03-13T10:49:45;2.10;;;1.80;;
17524;SDS011;40431;52.198;9.902;2023-03-13T10:52:26;1.60;;;1.50;;
17524;SDS011;40431;52.198;9.902;2023-03-13T10:54:55;2.10;;;1.90;;
17524;SDS011;40431;52.198;9.902;2023-03-13T10:57:27;1.90;;;1.80;;
17524;SDS011;40431;52.198;9.902;2023-03-13T10:59:55;2.20;;;2.00;;
17524;SDS011;40431;52.198;9.902;2023-03-13T11:02:24;3.17;;;2.27;;
17524;SDS011;40431;52.198;9.902;2023-03-13T11:04:53;2.37;;;2.17;;
17524;SDS011;40431;52.198;9.902;2023-03-13T11:07:21;2.10;;;2.00;;
17524;SDS011;40431;52.198;9.902;2023-03-13T11:09:57;2.77;;;1.80;;
17524;SDS011;40431;52.198;9.902;2023-03-13T11:12:25;2.03;;;1.93;;
17524;SDS011;40431;52.198;9.902;2023-03-13T11:14:55;2.33;;;1.97;;
17524;SDS011;40431;52.198;9.902;2023-03-13T11:17:23;1.70;;;1.60;;
17524;SDS011;40431;52.198;9.902;2023-03-13T11:20:00;2.10;;;1.90;;
17524;SDS011;40431;52.198;9.902;2023-03-13T11:22:39;3.80;;;1.93;;
17524;SDS011;40431;52.198;9.902;2023-03-13T11:25:17;2.07;;;1.90;;
17524;SDS011;40431;52.198;9.902;2023-03-13T11:27:47;1.57;;;1.47;;
17524;SDS011;40431;52.198;9.902;2023-03-13T11:30:29;2.33;;;2.13;;
17524;SDS011;40431;52.198;9.902;2023-03-13T11:33:09;2.07;;;1.70;;
17524;SDS011;40431;52.198;9.902;2023-03-13T11:35:43;3.33;;;1.80;;
17524;SDS011;40431;52.198;9.902;2023-03-13T11:38:15;2.10;;;1.90;;
17524;SDS011;40431;52.198;9.902;2023-03-13T11:40:46;3.50;;;1.93;;
17524;SDS011;40431;52.198;9.902;2023-03-13T11:43:26;3.20;;;1.73;;
17524;SDS011;40431;52.198;9.902;2023-03-13T11:46:13;2.63;;;2.17;;
17524;SDS011;40431;52.198;9.902;2023-03-13T11:49:16;2.13;;;1.40;;
17524;SDS011;40431;52.198;9.902;2023-03-13T11:51:53;3.03;;;2.00;;
17524;SDS011;40431;52.198;9.902;2023-03-13T11:54:37;2.07;;;1.93;;
17524;SDS011;40431;52.198;9.902;2023-03-13T11:57:13;2.83;;;2.10;;
17524;SDS011;40431;52.198;9.902;2023-03-13T11:59:44;2.43;;;1.60;;
17524;SDS011;40431;52.198;9.902;2023-03-13T12:02:20;2.47;;;2.00;;
17524;SDS011;40431;52.198;9.902;2023-03-13T12:04:53;1.53;;;1.43;;
17524;SDS011;40431;52.198;9.902;2023-03-13T12:07:24;2.57;;;1.70;;
17524;SDS011;40431;52.198;9.902;2023-03-13T12:09:56;2.00;;;1.90;;
17524;SDS011;40431;52.198;9.902;2023-03-13T12:12:30;1.97;;;1.57;;
17524;SDS011;40431;52.198;9.902;2023-03-13T12:15:04;4.10;;;2.13;;
17524;SDS011;40431;52.198;9.902;2023-03-13T12:17:44;2.03;;;1.93;;
17524;SDS011;40431;52.198;9.902;2023-03-13T12:20:17;3.70;;;1.80;;
17524;SDS011;40431;52.198;9.902;2023-03-13T12:22:48;2.93;;;1.93;;
17524;SDS011;40431;52.198;9.902;2023-03-13T12:25:24;1.93;;;1.40;;
17524;SDS011;40431;52.198;9.902;2023-03-13T12:27:54;2.27;;;1.77;;
17524;SDS011;40431;52.198;9.902;2023-03-13T12:30:26;1.80;;;1.70;;
17524;SDS011;40431;52.198;9.902;2023-03-13T12:33:00;2.30;;;1.63;;
17524;SDS011;40431;52.198;9.902;2023-03-13T12:35:35;3.80;;;1.73;;
17524;SDS011;40431;52.198;9.902;2023-03-13T12:38:04;1.50;;;1.40;;
17524;SDS011;40431;52.198;9.902;2023-03-13T12:40:39;2.03;;;1.60;;
17524;SDS011;40431;52.198;9.902;2023-03-13T12:43:11;1.83;;;1.23;;
17524;SDS011;40431;52.198;9.902;2023-03-13T12:45:53;1.97;;;1.60;;
17524;SDS011;40431;52.198;9.902;2023-03-13T12:48:42;1.77;;;1.40;;
17524;SDS011;40431;52.198;9.902;2023-03-13T12:51:26;1.10;;;1.10;;
17524;SDS011;40431;52.198;9.902;2023-03-13T12:54:11;1.60;;;1.50;;
17524;SDS011;40431;52.198;9.902;2023-03-13T12:57:02;2.70;;;1.40;;
17524;SDS011;40431;52.198;9.902;2023-03-13T12:59:37;3.40;;;1.50;;
17524;SDS011;40431;52.198;9.902;2023-03-13T13:02:12;1.50;;;1.40;;
17524;SDS011;40431;52.198;9.902;2023-03-13T13:04:41;2.47;;;1.73;;
17524;SDS011;40431;52.198;9.902;2023-03-13T13:07:19;1.40;;;1.30;;
17524;SDS011;40431;52.198;9.902;2023-03-13T13:09:59;1.23;;;1.10;;
17524;SDS011;40431;52.198;9.902;2023-03-13T13:12:31;1.80;;;1.40;;
17524;SDS011;40431;52.198;9.902;2023-03-13T13:14:59;1.20;;;1.13;;
17524;SDS011;40431;52.198;9.902;2023-03-13T13:17:39;1.13;;;1.10;;
17524;SDS011;40431;52.198;9.902;2023-03-13T13:20:37;2.10;;;1.40;;
17524;SDS011;40431;52.198;9.902;2023-03-13T13:23:25;1.17;;;1.10;;
17524;SDS011;40431;52.198;9.902;2023-03-13T13:26:35;2.40;;;1.50;;
17524;SDS011;40431;52.198;9.902;2023-03-13T13:32:18;1.10;;;0.90;;
17524;SDS011;40431;52.198;9.902;2023-03-13T13:34:57;1.83;;;1.43;;
17524;SDS011;40431;52.198;9.902;2023-03-13T13:37:26;3.00;;;1.30;;
17524;SDS011;40431;52.198;9.902;2023-03-13T13:40:08;1.40;;;1.30;;
17524;SDS011;40431;52.198;9.902;2023-03-13T13:42:48;2.27;;;1.50;;
17524;SDS011;40431;52.198;9.902;2023-03-13T13:45:26;1.77;;;1.13;;
17524;SDS011;40431;52.198;9.902;2023-03-13T13:48:15;1.67;;;1.00;;
17524;SDS011;40431;52.198;9.902;2023-03-13T13:53:48;1.07;;;1.03;;
17524;SDS011;40431;52.198;9.902;2023-03-13T13:56:27;1.27;;;1.17;;
17524;SDS011;40431;52.198;9.902;2023-03-13T13:58:56;1.27;;;1.20;;
17524;SDS011;40431;52.198;9.902;2023-03-13T14:01:25;1.33;;;1.10;;
17524;SDS011;40431;52.198;9.902;2023-03-13T14:03:53;1.17;;;1.10;;
17524;SDS011;40431;52.198;9.902;2023-03-13T14:06:28;1.03;;;1.03;;
17524;SDS011;40431;52.198;9.902;2023-03-13T14:09:01;1.30;;;1.20;;
17524;SDS011;40431;52.198;9.902;2023-03-13T14:11:40;0.90;;;0.90;;
17524;SDS011;40431;52.198;9.902;2023-03-13T14:14:07;1.00;;;1.00;;
17524;SDS011;40431;52.198;9.902;2023-03-13T14:16:35;1.40;;;1.30;;
17524;SDS011;40431;52.198;9.902;2023-03-13T14:19:03;1.43;;;1.20;;
17524;SDS011;40431;52.198;9.902;2023-03-13T14:21:30;1.20;;;1.10;;
17524;SDS011;40431;52.198;9.902;2023-03-13T14:23:58;1.63;;;1.20;;
17524;SDS011;40431;52.198;9.902;2023-03-13T14:26:25;2.63;;;1.10;;
17524;SDS011;40431;52.198;9.902;2023-03-13T14:28:54;1.00;;;1.00;;
17524;SDS011;40431;52.198;9.902;2023-03-13T14:31:25;3.43;;;1.10;;
17524;SDS011;40431;52.198;9.902;2023-03-13T14:33:54;1.17;;;0.90;;
17524;SDS011;40431;52.198;9.902;2023-03-13T14:36:22;1.63;;;1.00;;
17524;SDS011;40431;52.198;9.902;2023-03-13T14:38:52;1.00;;;0.90;;
17524;SDS011;40431;52.198;9.902;2023-03-13T14:41:26;1.00;;;1.00;;
17524;SDS011;40431;52.198;9.902;2023-03-13T14:44:00;1.40;;;1.30;;
17524;SDS011;40431;52.198;9.902;2023-03-13T14:46:29;1.00;;;1.00;;
17524;SDS011;40431;52.198;9.902;2023-03-13T14:49:04;1.33;;;1.00;;
17524;SDS011;40431;52.198;9.902;2023-03-13T14:51:35;1.33;;;1.23;;
17524;SDS011;40431;52.198;9.902;2023-03-13T14:54:03;1.57;;;0.90;;
17524;SDS011;40431;52.198;9.902;2023-03-13T14:56:31;1.20;;;1.10;;
17524;SDS011;40431;52.198;9.902;2023-03-13T14:59:05;2.40;;;1.17;;
17524;SDS011;40431;52.198;9.902;2023-03-13T15:01:33;1.50;;;1.17;;
17524;SDS011;40431;52.198;9.902;2023-03-13T15:04:00;1.00;;;1.00;;
17524;SDS011;40431;52.198;9.902;2023-03-13T15:06:26;1.53;;;1.10;;
17524;SDS011;40431;52.198;9.902;2023-03-13T15:11:41;0.93;;;0.93;;
17524;SDS011;40431;52.198;9.902;2023-03-13T15:14:36;1.13;;;1.10;;
17524;SDS011;40431;52.198;9.902;2023-03-13T15:17:09;1.70;;;1.30;;
17524;SDS011;40431;52.198;9.902;2023-03-13T15:19:38;1.00;;;0.90;;